sensor_id;sensor_type;location;lat;lon;timestamp;temperature;humidity
47520;DHT22;33252;48.122;11.538;2022-10-31T00:01:31;11.40;99.90
47520;DHT22;33252;48.122;11.538;2022-10-31T00:03:57;11.50;99.90
47520;DHT22;33252;48.122;11.538;2022-10-31T00:06:24;11.50;99.90
47520;DHT22;33252;48.122;11.538;2022-10-31T00:08:58;11.40;99.90
47520;DHT22;33252;48.122;11.538;2022-10-31T00:11:25;11.40;99.90
47520;DHT22;33252;48.122;11.538;2022-10-31T00:13:50;11.40;99.90
47520;DHT22;33252;48.122;11.538;2022-10-31T00:16:18;11.40;99.90
47520;DHT22;33252;48.122;11.538;2022-10-31T00:18:51;11.50;99.90
47520;DHT22;33252;48.122;11.538;2022-10-31T00:21:18;11.30;99.90
47520;DHT22;33252;48.122;11.538;2022-10-31T00:23:44;11.30;99.90
47520;DHT22;33252;48.122;11.538;2022-10-31T00:26:09;11.30;99.90
47520;DHT22;33252;48.122;11.538;2022-10-31T00:28:35;11.30;99.90
47520;DHT22;33252;48.122;11.538;2022-10-31T00:31:01;11.20;99.90
47520;DHT22;33252;48.122;11.538;2022-10-31T00:33:28;11.20;99.90
47520;DHT22;33252;48.122;11.538;2022-10-31T00:35:53;11.40;99.90
47520;DHT22;33252;48.122;11.538;2022-10-31T00:38:19;11.50;99.90
47520;DHT22;33252;48.122;11.538;2022-10-31T00:40:45;11.50;99.90
47520;DHT22;33252;48.122;11.538;2022-10-31T00:43:10;11.40;99.90
47520;DHT22;33252;48.122;11.538;2022-10-31T00:45:36;11.20;99.90
47520;DHT22;33252;48.122;11.538;2022-10-31T00:48:02;11.30;99.90
47520;DHT22;33252;48.122;11.538;2022-10-31T00:50:27;11.20;99.90
47520;DHT22;33252;48.122;11.538;2022-10-31T00:52:53;11.30;99.90
47520;DHT22;33252;48.122;11.538;2022-10-31T00:55:19;11.20;99.90
47520;DHT22;33252;48.122;11.538;2022-10-31T00:57:47;11.00;99.90
47520;DHT22;33252;48.122;11.538;2022-10-31T01:00:14;11.10;99.90
47520;DHT22;33252;48.122;11.538;2022-10-31T01:02:39;11.10;99.90
47520;DHT22;33252;48.122;11.538;2022-10-31T01:05:05;11.10;99.90
47520;DHT22;33252;48.122;11.538;2022-10-31T01:07:31;11.00;99.90
47520;DHT22;33252;48.122;11.538;2022-10-31T01:09:57;11.20;99.90
47520;DHT22;33252;48.122;11.538;2022-10-31T01:12:22;11.20;99.90
47520;DHT22;33252;48.122;11.538;2022-10-31T01:14:48;11.10;99.90
47520;DHT22;33252;48.122;11.538;2022-10-31T01:17:14;11.10;99.90
47520;DHT22;33252;48.122;11.538;2022-10-31T01:19:39;11.20;99.90
47520;DHT22;33252;48.122;11.538;2022-10-31T01:22:05;11.00;99.90
47520;DHT22;33252;48.122;11.538;2022-10-31T01:24:31;11.10;99.90
47520;DHT22;33252;48.122;11.538;2022-10-31T01:26:57;11.20;99.90
47520;DHT22;33252;48.122;11.538;2022-10-31T01:29:23;11.20;99.90
47520;DHT22;33252;48.122;11.538;2022-10-31T01:31:48;11.00;99.90
47520;DHT22;33252;48.122;11.538;2022-10-31T01:34:16;11.00;99.90
47520;DHT22;33252;48.122;11.538;2022-10-31T01:36:43;11.00;99.90
47520;DHT22;33252;48.122;11.538;2022-10-31T01:39:15;11.20;99.90
47520;DHT22;33252;48.122;11.538;2022-10-31T01:41:46;11.20;99.90
47520;DHT22;33252;48.122;11.538;2022-10-31T01:46:47;11.30;99.90
47520;DHT22;33252;48.122;11.538;2022-10-31T01:49:31;11.20;99.90
47520;DHT22;33252;48.122;11.538;2022-10-31T01:52:07;11.20;99.90
47520;DHT22;33252;48.122;11.538;2022-10-31T01:54:40;11.00;99.90
47520;DHT22;33252;48.122;11.538;2022-10-31T01:57:10;11.00;99.90
47520;DHT22;33252;48.122;11.538;2022-10-31T01:59:42;11.00;99.90
47520;DHT22;33252;48.122;11.538;2022-10-31T02:02:08;11.00;99.90
47520;DHT22;33252;48.122;11.538;2022-10-31T02:04:35;11.10;99.90
47520;DHT22;33252;48.122;11.538;2022-10-31T02:07:06;11.40;99.90
47520;DHT22;33252;48.122;11.538;2022-10-31T02:09:34;11.40;99.90
47520;DHT22;33252;48.122;11.538;2022-10-31T02:12:01;11.30;99.90
47520;DHT22;33252;48.122;11.538;2022-10-31T02:14:29;11.10;99.90
47520;DHT22;33252;48.122;11.538;2022-10-31T02:16:56;11.00;99.90
47520;DHT22;33252;48.122;11.538;2022-10-31T02:19:30;10.90;99.90
47520;DHT22;33252;48.122;11.538;2022-10-31T02:30:33;11.10;99.90
47520;DHT22;33252;48.122;11.538;2022-10-31T02:36:16;11.00;99.90
47520;DHT22;33252;48.122;11.538;2022-10-31T02:42:03;10.90;99.90
47520;DHT22;33252;48.122;11.538;2022-10-31T02:49:57;10.70;99.90
47520;DHT22;33252;48.122;11.538;2022-10-31T02:52:27;10.80;99.90
47520;DHT22;33252;48.122;11.538;2022-10-31T02:54:53;10.60;99.90
47520;DHT22;33252;48.122;11.538;2022-10-31T02:57:25;10.70;99.90
47520;DHT22;33252;48.122;11.538;2022-10-31T03:00:02;10.80;99.90
47520;DHT22;33252;48.122;11.538;2022-10-31T03:10:40;10.70;99.90
47520;DHT22;33252;48.122;11.538;2022-10-31T03:13:20;10.60;99.90
47520;DHT22;33252;48.122;11.538;2022-10-31T03:15:51;10.50;99.90
47520;DHT22;33252;48.122;11.538;2022-10-31T03:18:31;10.50;99.90
47520;DHT22;33252;48.122;11.538;2022-10-31T03:21:04;10.60;99.90
47520;DHT22;33252;48.122;11.538;2022-10-31T03:23:32;10.60;99.90
47520;DHT22;33252;48.122;11.538;2022-10-31T03:26:01;10.60;99.90
47520;DHT22;33252;48.122;11.538;2022-10-31T03:28:43;10.70;99.90
47520;DHT22;33252;48.122;11.538;2022-10-31T03:31:10;10.80;99.90
47520;DHT22;33252;48.122;11.538;2022-10-31T03:33:39;10.80;99.90
47520;DHT22;33252;48.122;11.538;2022-10-31T03:36:08;10.90;99.90
47520;DHT22;33252;48.122;11.538;2022-10-31T03:38:35;10.90;99.90
47520;DHT22;33252;48.122;11.538;2022-10-31T03:41:03;10.90;99.90
47520;DHT22;33252;48.122;11.538;2022-10-31T03:43:33;10.90;99.90
47520;DHT22;33252;48.122;11.538;2022-10-31T03:46:00;10.80;99.90
47520;DHT22;33252;48.122;11.538;2022-10-31T03:48:26;10.80;99.90
47520;DHT22;33252;48.122;11.538;2022-10-31T03:51:13;10.80;99.90
47520;DHT22;33252;48.122;11.538;2022-10-31T03:53:46;10.80;99.90
47520;DHT22;33252;48.122;11.538;2022-10-31T03:56:29;10.80;99.90
47520;DHT22;33252;48.122;11.538;2022-10-31T03:59:09;10.80;99.90
47520;DHT22;33252;48.122;11.538;2022-10-31T04:01:42;10.80;99.90
47520;DHT22;33252;48.122;11.538;2022-10-31T04:04:09;10.80;99.90
47520;DHT22;33252;48.122;11.538;2022-10-31T04:06:38;10.80;99.90
47520;DHT22;33252;48.122;11.538;2022-10-31T04:09:06;10.90;99.90
47520;DHT22;33252;48.122;11.538;2022-10-31T04:11:40;10.90;99.90
47520;DHT22;33252;48.122;11.538;2022-10-31T04:14:08;10.90;99.90
47520;DHT22;33252;48.122;11.538;2022-10-31T04:16:34;10.70;99.90
47520;DHT22;33252;48.122;11.538;2022-10-31T04:19:00;10.70;99.90
47520;DHT22;33252;48.122;11.538;2022-10-31T04:21:29;10.60;99.90
47520;DHT22;33252;48.122;11.538;2022-10-31T04:23:55;10.50;99.90
47520;DHT22;33252;48.122;11.538;2022-10-31T04:26:21;10.40;99.90
47520;DHT22;33252;48.122;11.538;2022-10-31T04:28:47;10.40;99.90
47520;DHT22;33252;48.122;11.538;2022-10-31T04:31:13;10.30;99.90
47520;DHT22;33252;48.122;11.538;2022-10-31T04:33:39;10.50;99.90
47520;DHT22;33252;48.122;11.538;2022-10-31T04:36:05;10.40;99.90
47520;DHT22;33252;48.122;11.538;2022-10-31T04:38:30;10.40;99.90
47520;DHT22;33252;48.122;11.538;2022-10-31T04:40:56;10.40;99.90
47520;DHT22;33252;48.122;11.538;2022-10-31T04:43:22;10.40;99.90
47520;DHT22;33252;48.122;11.538;2022-10-31T04:45:48;10.40;99.90
47520;DHT22;33252;48.122;11.538;2022-10-31T04:48:13;10.40;99.90
47520;DHT22;33252;48.122;11.538;2022-10-31T04:50:39;10.40;99.90
47520;DHT22;33252;48.122;11.538;2022-10-31T04:53:05;10.40;99.90
47520;DHT22;33252;48.122;11.538;2022-10-31T04:55:31;10.40;99.90
47520;DHT22;33252;48.122;11.538;2022-10-31T04:57:57;10.50;99.90
47520;DHT22;33252;48.122;11.538;2022-10-31T05:00:23;10.30;99.90
47520;DHT22;33252;48.122;11.538;2022-10-31T05:02:53;10.20;99.90
47520;DHT22;33252;48.122;11.538;2022-10-31T05:05:21;10.20;99.90
47520;DHT22;33252;48.122;11.538;2022-10-31T05:07:48;10.20;99.90
47520;DHT22;33252;48.122;11.538;2022-10-31T05:10:17;10.20;99.90
47520;DHT22;33252;48.122;11.538;2022-10-31T05:13:09;10.20;99.90
47520;DHT22;33252;48.122;11.538;2022-10-31T05:15:35;10.10;99.90
47520;DHT22;33252;48.122;11.538;2022-10-31T05:18:01;10.10;99.90
47520;DHT22;33252;48.122;11.538;2022-10-31T05:20:29;10.00;99.90
47520;DHT22;33252;48.122;11.538;2022-10-31T05:22:56;9.90;99.90
47520;DHT22;33252;48.122;11.538;2022-10-31T05:25:25;10.00;99.90
47520;DHT22;33252;48.122;11.538;2022-10-31T05:27:52;10.00;99.90
47520;DHT22;33252;48.122;11.538;2022-10-31T05:30:30;9.90;99.90
47520;DHT22;33252;48.122;11.538;2022-10-31T05:32:56;9.80;99.90
47520;DHT22;33252;48.122;11.538;2022-10-31T05:35:28;9.80;99.90
47520;DHT22;33252;48.122;11.538;2022-10-31T05:37:54;9.90;99.90
47520;DHT22;33252;48.122;11.538;2022-10-31T05:40:21;9.90;99.90
47520;DHT22;33252;48.122;11.538;2022-10-31T05:42:49;9.80;99.90
47520;DHT22;33252;48.122;11.538;2022-10-31T05:45:16;9.80;99.90
47520;DHT22;33252;48.122;11.538;2022-10-31T05:47:49;9.80;99.90
47520;DHT22;33252;48.122;11.538;2022-10-31T05:50:15;9.90;99.90
47520;DHT22;33252;48.122;11.538;2022-10-31T05:52:41;9.90;99.90
47520;DHT22;33252;48.122;11.538;2022-10-31T05:55:07;9.70;99.90
47520;DHT22;33252;48.122;11.538;2022-10-31T05:57:33;9.70;99.90
47520;DHT22;33252;48.122;11.538;2022-10-31T05:59:59;9.70;99.90
47520;DHT22;33252;48.122;11.538;2022-10-31T06:02:25;9.70;99.90
47520;DHT22;33252;48.122;11.538;2022-10-31T06:04:52;9.70;99.90
47520;DHT22;33252;48.122;11.538;2022-10-31T06:07:18;9.80;99.90
47520;DHT22;33252;48.122;11.538;2022-10-31T06:09:43;9.90;99.90
47520;DHT22;33252;48.122;11.538;2022-10-31T06:12:09;10.00;99.90
47520;DHT22;33252;48.122;11.538;2022-10-31T06:14:35;9.90;99.90
47520;DHT22;33252;48.122;11.538;2022-10-31T06:17:00;9.80;99.90
47520;DHT22;33252;48.122;11.538;2022-10-31T06:19:26;9.80;99.90
47520;DHT22;33252;48.122;11.538;2022-10-31T06:21:51;9.80;99.90
47520;DHT22;33252;48.122;11.538;2022-10-31T06:24:17;9.80;99.90
47520;DHT22;33252;48.122;11.538;2022-10-31T06:26:43;9.90;99.90
47520;DHT22;33252;48.122;11.538;2022-10-31T06:29:08;9.70;99.90
47520;DHT22;33252;48.122;11.538;2022-10-31T06:31:34;10.10;99.90
47520;DHT22;33252;48.122;11.538;2022-10-31T06:33:59;10.20;99.90
47520;DHT22;33252;48.122;11.538;2022-10-31T06:36:25;10.20;99.90
47520;DHT22;33252;48.122;11.538;2022-10-31T06:38:51;10.00;99.90
47520;DHT22;33252;48.122;11.538;2022-10-31T06:41:16;10.00;99.90
47520;DHT22;33252;48.122;11.538;2022-10-31T06:43:42;10.00;99.90
47520;DHT22;33252;48.122;11.538;2022-10-31T06:46:07;10.00;99.90
47520;DHT22;33252;48.122;11.538;2022-10-31T06:48:33;10.10;99.90
47520;DHT22;33252;48.122;11.538;2022-10-31T06:51:00;10.10;99.90
47520;DHT22;33252;48.122;11.538;2022-10-31T06:53:26;10.20;99.90
47520;DHT22;33252;48.122;11.538;2022-10-31T06:55:52;10.30;99.90
47520;DHT22;33252;48.122;11.538;2022-10-31T06:58:18;10.30;99.90
47520;DHT22;33252;48.122;11.538;2022-10-31T07:00:43;10.50;99.90
47520;DHT22;33252;48.122;11.538;2022-10-31T07:03:11;10.70;99.90
47520;DHT22;33252;48.122;11.538;2022-10-31T07:05:37;10.70;99.90
47520;DHT22;33252;48.122;11.538;2022-10-31T07:08:05;10.70;99.90
47520;DHT22;33252;48.122;11.538;2022-10-31T07:10:33;10.70;99.90
47520;DHT22;33252;48.122;11.538;2022-10-31T07:13:01;10.60;99.90
47520;DHT22;33252;48.122;11.538;2022-10-31T07:15:28;10.70;99.90
47520;DHT22;33252;48.122;11.538;2022-10-31T07:18:00;10.90;99.90
47520;DHT22;33252;48.122;11.538;2022-10-31T07:20:27;10.90;99.90
47520;DHT22;33252;48.122;11.538;2022-10-31T07:22:53;10.90;99.90
47520;DHT22;33252;48.122;11.538;2022-10-31T07:25:18;10.90;99.90
47520;DHT22;33252;48.122;11.538;2022-10-31T07:27:44;11.00;99.90
47520;DHT22;33252;48.122;11.538;2022-10-31T07:30:11;11.10;99.90
47520;DHT22;33252;48.122;11.538;2022-10-31T07:32:42;11.10;99.90
47520;DHT22;33252;48.122;11.538;2022-10-31T07:35:09;11.20;99.90
47520;DHT22;33252;48.122;11.538;2022-10-31T07:37:36;11.20;99.90
47520;DHT22;33252;48.122;11.538;2022-10-31T07:40:03;11.30;99.90
47520;DHT22;33252;48.122;11.538;2022-10-31T07:42:29;11.30;99.90
47520;DHT22;33252;48.122;11.538;2022-10-31T07:44:54;11.40;99.90
47520;DHT22;33252;48.122;11.538;2022-10-31T07:47:20;11.40;99.90
47520;DHT22;33252;48.122;11.538;2022-10-31T07:49:46;11.60;99.90
47520;DHT22;33252;48.122;11.538;2022-10-31T07:52:11;11.60;99.90
47520;DHT22;33252;48.122;11.538;2022-10-31T07:54:37;11.80;99.90
47520;DHT22;33252;48.122;11.538;2022-10-31T07:57:02;11.90;99.90
47520;DHT22;33252;48.122;11.538;2022-10-31T07:59:28;11.90;99.90
47520;DHT22;33252;48.122;11.538;2022-10-31T08:01:54;11.90;99.90
47520;DHT22;33252;48.122;11.538;2022-10-31T08:04:20;11.90;99.90
47520;DHT22;33252;48.122;11.538;2022-10-31T08:06:45;12.00;99.90
47520;DHT22;33252;48.122;11.538;2022-10-31T08:09:13;12.00;99.90
47520;DHT22;33252;48.122;11.538;2022-10-31T08:11:39;12.10;99.90
47520;DHT22;33252;48.122;11.538;2022-10-31T08:14:05;12.20;99.90
47520;DHT22;33252;48.122;11.538;2022-10-31T08:16:30;12.30;99.90
47520;DHT22;33252;48.122;11.538;2022-10-31T08:18:56;12.30;99.90
47520;DHT22;33252;48.122;11.538;2022-10-31T08:21:25;12.40;99.90
47520;DHT22;33252;48.122;11.538;2022-10-31T08:23:50;12.50;99.90
47520;DHT22;33252;48.122;11.538;2022-10-31T08:26:16;12.60;99.90
47520;DHT22;33252;48.122;11.538;2022-10-31T08:28:42;12.60;99.90
47520;DHT22;33252;48.122;11.538;2022-10-31T08:31:07;12.70;99.90
47520;DHT22;33252;48.122;11.538;2022-10-31T08:33:35;12.70;99.90
47520;DHT22;33252;48.122;11.538;2022-10-31T08:36:01;12.80;99.90
47520;DHT22;33252;48.122;11.538;2022-10-31T08:38:26;13.00;99.90
47520;DHT22;33252;48.122;11.538;2022-10-31T08:40:52;13.10;99.90
47520;DHT22;33252;48.122;11.538;2022-10-31T08:43:18;13.20;99.90
47520;DHT22;33252;48.122;11.538;2022-10-31T08:45:47;13.30;99.90
47520;DHT22;33252;48.122;11.538;2022-10-31T08:48:15;13.40;99.90
47520;DHT22;33252;48.122;11.538;2022-10-31T08:50:41;13.50;99.90
47520;DHT22;33252;48.122;11.538;2022-10-31T08:53:12;13.50;99.90
47520;DHT22;33252;48.122;11.538;2022-10-31T08:55:39;13.60;99.90
47520;DHT22;33252;48.122;11.538;2022-10-31T08:58:07;13.70;99.90
47520;DHT22;33252;48.122;11.538;2022-10-31T09:00:34;13.90;99.90
47520;DHT22;33252;48.122;11.538;2022-10-31T09:03:04;13.90;99.90
47520;DHT22;33252;48.122;11.538;2022-10-31T09:05:32;14.00;99.90
47520;DHT22;33252;48.122;11.538;2022-10-31T09:07:59;14.10;99.90
47520;DHT22;33252;48.122;11.538;2022-10-31T09:10:25;14.30;99.90
47520;DHT22;33252;48.122;11.538;2022-10-31T09:13:02;14.20;99.90
47520;DHT22;33252;48.122;11.538;2022-10-31T09:15:32;14.30;99.90
47520;DHT22;33252;48.122;11.538;2022-10-31T09:17:58;14.40;99.90
47520;DHT22;33252;48.122;11.538;2022-10-31T09:20:24;14.50;99.90
47520;DHT22;33252;48.122;11.538;2022-10-31T09:23:20;14.50;99.90
47520;DHT22;33252;48.122;11.538;2022-10-31T09:25:48;14.70;99.90
47520;DHT22;33252;48.122;11.538;2022-10-31T09:28:16;14.70;99.90
47520;DHT22;33252;48.122;11.538;2022-10-31T09:30:42;14.90;99.90
47520;DHT22;33252;48.122;11.538;2022-10-31T09:33:12;14.90;99.90
47520;DHT22;33252;48.122;11.538;2022-10-31T09:35:39;14.80;99.90
47520;DHT22;33252;48.122;11.538;2022-10-31T09:38:16;14.90;99.90
47520;DHT22;33252;48.122;11.538;2022-10-31T09:48:44;15.30;99.90
47520;DHT22;33252;48.122;11.538;2022-10-31T09:51:33;15.30;99.90
47520;DHT22;33252;48.122;11.538;2022-10-31T09:54:13;15.30;99.90
47520;DHT22;33252;48.122;11.538;2022-10-31T09:56:40;15.40;99.90
47520;DHT22;33252;48.122;11.538;2022-10-31T09:59:19;15.50;99.90
47520;DHT22;33252;48.122;11.538;2022-10-31T10:04:42;15.70;99.90
47520;DHT22;33252;48.122;11.538;2022-10-31T10:09:54;15.90;99.90
47520;DHT22;33252;48.122;11.538;2022-10-31T10:14:57;16.00;99.90
47520;DHT22;33252;48.122;11.538;2022-10-31T10:26:19;16.30;98.70
47520;DHT22;33252;48.122;11.538;2022-10-31T10:29:44;16.40;98.50
47520;DHT22;33252;48.122;11.538;2022-10-31T10:31:44;16.30;99.10
47520;DHT22;33252;48.122;11.538;2022-10-31T10:34:30;16.40;98.70
47520;DHT22;33252;48.122;11.538;2022-10-31T10:37:39;16.50;99.50
47520;DHT22;33252;48.122;11.538;2022-10-31T10:40:13;16.50;99.80
47520;DHT22;33252;48.122;11.538;2022-10-31T10:42:40;16.60;98.70
47520;DHT22;33252;48.122;11.538;2022-10-31T10:45:24;16.60;98.70
47520;DHT22;33252;48.122;11.538;2022-10-31T10:48:30;16.70;99.40
47520;DHT22;33252;48.122;11.538;2022-10-31T10:50:59;16.80;99.90
47520;DHT22;33252;48.122;11.538;2022-10-31T10:57:00;16.90;98.50
47520;DHT22;33252;48.122;11.538;2022-10-31T10:59:28;17.00;98.30
47520;DHT22;33252;48.122;11.538;2022-10-31T11:01:56;17.20;97.50
47520;DHT22;33252;48.122;11.538;2022-10-31T11:04:35;17.20;98.00
47520;DHT22;33252;48.122;11.538;2022-10-31T11:07:04;17.30;97.80
47520;DHT22;33252;48.122;11.538;2022-10-31T11:09:31;17.20;96.50
47520;DHT22;33252;48.122;11.538;2022-10-31T11:11:58;17.30;97.10
47520;DHT22;33252;48.122;11.538;2022-10-31T11:14:25;17.30;97.20
47520;DHT22;33252;48.122;11.538;2022-10-31T11:17:06;17.30;97.10
47520;DHT22;33252;48.122;11.538;2022-10-31T11:19:33;17.40;96.80
47520;DHT22;33252;48.122;11.538;2022-10-31T11:22:17;17.50;97.00
47520;DHT22;33252;48.122;11.538;2022-10-31T11:24:43;17.40;97.60
47520;DHT22;33252;48.122;11.538;2022-10-31T11:27:14;17.60;96.10
47520;DHT22;33252;48.122;11.538;2022-10-31T11:29:40;17.70;95.80
47520;DHT22;33252;48.122;11.538;2022-10-31T11:32:18;17.80;94.90
47520;DHT22;33252;48.122;11.538;2022-10-31T11:34:46;18.00;95.50
47520;DHT22;33252;48.122;11.538;2022-10-31T11:37:23;17.90;95.60
47520;DHT22;33252;48.122;11.538;2022-10-31T11:39:55;17.90;95.40
47520;DHT22;33252;48.122;11.538;2022-10-31T11:42:26;17.90;94.40
47520;DHT22;33252;48.122;11.538;2022-10-31T11:44:54;17.90;94.90
47520;DHT22;33252;48.122;11.538;2022-10-31T11:47:27;17.90;94.90
47520;DHT22;33252;48.122;11.538;2022-10-31T11:49:54;17.90;94.20
47520;DHT22;33252;48.122;11.538;2022-10-31T11:52:26;18.00;93.80
47520;DHT22;33252;48.122;11.538;2022-10-31T12:08:36;17.90;93.20
47520;DHT22;33252;48.122;11.538;2022-10-31T12:16:42;17.80;93.40
47520;DHT22;33252;48.122;11.538;2022-10-31T12:19:35;17.70;93.70
47520;DHT22;33252;48.122;11.538;2022-10-31T12:38:48;17.80;94.30
47520;DHT22;33252;48.122;11.538;2022-10-31T12:41:46;17.80;94.20
47520;DHT22;33252;48.122;11.538;2022-10-31T12:58:06;18.50;94.50
47520;DHT22;33252;48.122;11.538;2022-10-31T13:00:37;18.50;95.00
47520;DHT22;33252;48.122;11.538;2022-10-31T13:03:58;18.50;95.60
47520;DHT22;33252;48.122;11.538;2022-10-31T13:06:20;18.80;94.50
47520;DHT22;33252;48.122;11.538;2022-10-31T13:09:05;18.80;94.30
47520;DHT22;33252;48.122;11.538;2022-10-31T13:11:35;18.70;94.80
47520;DHT22;33252;48.122;11.538;2022-10-31T13:16:47;18.70;94.60
47520;DHT22;33252;48.122;11.538;2022-10-31T13:19:28;18.60;95.30
47520;DHT22;33252;48.122;11.538;2022-10-31T13:22:16;18.60;95.40
47520;DHT22;33252;48.122;11.538;2022-10-31T13:24:52;18.60;95.40
47520;DHT22;33252;48.122;11.538;2022-10-31T13:27:26;18.40;95.40
47520;DHT22;33252;48.122;11.538;2022-10-31T13:30:05;18.50;94.90
47520;DHT22;33252;48.122;11.538;2022-10-31T13:35:41;18.40;95.30
47520;DHT22;33252;48.122;11.538;2022-10-31T13:38:21;18.20;96.30
47520;DHT22;33252;48.122;11.538;2022-10-31T13:46:00;18.10;96.10
47520;DHT22;33252;48.122;11.538;2022-10-31T13:48:35;18.20;96.00
47520;DHT22;33252;48.122;11.538;2022-10-31T13:51:08;18.10;95.90
47520;DHT22;33252;48.122;11.538;2022-10-31T13:53:40;18.10;96.40
47520;DHT22;33252;48.122;11.538;2022-10-31T13:58:34;18.10;96.10
47520;DHT22;33252;48.122;11.538;2022-10-31T14:01:19;18.10;96.80
47520;DHT22;33252;48.122;11.538;2022-10-31T14:03:55;17.90;96.90
47520;DHT22;33252;48.122;11.538;2022-10-31T14:06:23;17.90;97.30
47520;DHT22;33252;48.122;11.538;2022-10-31T14:08:51;17.80;97.20
47520;DHT22;33252;48.122;11.538;2022-10-31T14:11:26;17.90;97.10
47520;DHT22;33252;48.122;11.538;2022-10-31T14:13:54;17.90;97.10
47520;DHT22;33252;48.122;11.538;2022-10-31T14:16:26;18.00;97.00
47520;DHT22;33252;48.122;11.538;2022-10-31T14:19:05;18.00;97.00
47520;DHT22;33252;48.122;11.538;2022-10-31T14:21:39;18.20;97.20
47520;DHT22;33252;48.122;11.538;2022-10-31T14:27:00;18.30;96.80
47520;DHT22;33252;48.122;11.538;2022-10-31T14:29:31;18.40;96.40
47520;DHT22;33252;48.122;11.538;2022-10-31T14:34:58;18.30;96.40
47520;DHT22;33252;48.122;11.538;2022-10-31T14:40:35;18.10;97.30
47520;DHT22;33252;48.122;11.538;2022-10-31T14:48:54;18.00;97.30
47520;DHT22;33252;48.122;11.538;2022-10-31T14:51:39;18.00;97.50
47520;DHT22;33252;48.122;11.538;2022-10-31T14:54:10;17.90;98.00
47520;DHT22;33252;48.122;11.538;2022-10-31T14:56:39;17.80;98.30
47520;DHT22;33252;48.122;11.538;2022-10-31T14:59:11;17.80;98.40
47520;DHT22;33252;48.122;11.538;2022-10-31T15:01:39;17.80;98.60
47520;DHT22;33252;48.122;11.538;2022-10-31T15:04:14;17.80;98.60
47520;DHT22;33252;48.122;11.538;2022-10-31T15:06:47;17.80;98.50
47520;DHT22;33252;48.122;11.538;2022-10-31T15:09:33;17.60;99.10
47520;DHT22;33252;48.122;11.538;2022-10-31T15:20:43;17.40;99.40
47520;DHT22;33252;48.122;11.538;2022-10-31T15:25:49;17.40;99.50
47520;DHT22;33252;48.122;11.538;2022-10-31T15:28:25;17.30;99.90
47520;DHT22;33252;48.122;11.538;2022-10-31T15:30:56;17.20;99.90
47520;DHT22;33252;48.122;11.538;2022-10-31T15:33:39;17.10;99.90
47520;DHT22;33252;48.122;11.538;2022-10-31T15:36:05;17.10;99.90
47520;DHT22;33252;48.122;11.538;2022-10-31T15:38:30;17.00;99.90
47520;DHT22;33252;48.122;11.538;2022-10-31T15:43:46;16.80;99.90
47520;DHT22;33252;48.122;11.538;2022-10-31T15:46:12;16.70;99.90
47520;DHT22;33252;48.122;11.538;2022-10-31T15:48:38;16.70;99.90
47520;DHT22;33252;48.122;11.538;2022-10-31T15:51:06;16.60;99.90
47520;DHT22;33252;48.122;11.538;2022-10-31T15:53:49;16.60;99.90
47520;DHT22;33252;48.122;11.538;2022-10-31T15:56:30;16.50;99.90
47520;DHT22;33252;48.122;11.538;2022-10-31T15:58:58;16.50;99.90
47520;DHT22;33252;48.122;11.538;2022-10-31T16:01:29;16.40;99.90
47520;DHT22;33252;48.122;11.538;2022-10-31T16:03:59;16.40;99.90
47520;DHT22;33252;48.122;11.538;2022-10-31T16:06:26;16.20;99.90
47520;DHT22;33252;48.122;11.538;2022-10-31T16:08:51;16.20;99.90
47520;DHT22;33252;48.122;11.538;2022-10-31T16:16:23;16.00;99.90
47520;DHT22;33252;48.122;11.538;2022-10-31T16:18:50;15.90;99.90
47520;DHT22;33252;48.122;11.538;2022-10-31T16:21:27;16.00;99.90
47520;DHT22;33252;48.122;11.538;2022-10-31T16:26:51;15.80;99.90
47520;DHT22;33252;48.122;11.538;2022-10-31T16:29:45;15.80;99.90
47520;DHT22;33252;48.122;11.538;2022-10-31T16:35:23;15.60;99.90
47520;DHT22;33252;48.122;11.538;2022-10-31T16:37:44;15.40;99.90
47520;DHT22;33252;48.122;11.538;2022-10-31T16:40:12;15.40;99.90
47520;DHT22;33252;48.122;11.538;2022-10-31T16:42:44;15.40;99.90
47520;DHT22;33252;48.122;11.538;2022-10-31T16:45:22;15.20;99.90
47520;DHT22;33252;48.122;11.538;2022-10-31T16:47:48;15.20;99.90
47520;DHT22;33252;48.122;11.538;2022-10-31T16:52:45;15.10;99.90
47520;DHT22;33252;48.122;11.538;2022-10-31T16:55:16;15.00;99.90
47520;DHT22;33252;48.122;11.538;2022-10-31T16:57:45;15.00;99.90
47520;DHT22;33252;48.122;11.538;2022-10-31T17:00:14;14.90;99.90
47520;DHT22;33252;48.122;11.538;2022-10-31T17:02:40;14.90;99.90
47520;DHT22;33252;48.122;11.538;2022-10-31T17:05:10;14.90;99.90
47520;DHT22;33252;48.122;11.538;2022-10-31T17:07:36;14.90;99.90
47520;DHT22;33252;48.122;11.538;2022-10-31T17:10:01;14.80;99.90
47520;DHT22;33252;48.122;11.538;2022-10-31T17:12:27;14.70;99.90
47520;DHT22;33252;48.122;11.538;2022-10-31T17:14:53;14.70;99.90
47520;DHT22;33252;48.122;11.538;2022-10-31T17:17:19;14.60;99.90
47520;DHT22;33252;48.122;11.538;2022-10-31T17:19:44;14.50;99.90
47520;DHT22;33252;48.122;11.538;2022-10-31T17:22:11;14.50;99.90
47520;DHT22;33252;48.122;11.538;2022-10-31T17:24:37;14.40;99.90
47520;DHT22;33252;48.122;11.538;2022-10-31T17:27:03;14.40;99.90
47520;DHT22;33252;48.122;11.538;2022-10-31T17:29:28;14.30;99.90
47520;DHT22;33252;48.122;11.538;2022-10-31T17:31:54;14.30;99.90
47520;DHT22;33252;48.122;11.538;2022-10-31T17:34:20;14.30;99.90
47520;DHT22;33252;48.122;11.538;2022-10-31T17:36:52;14.30;99.90
47520;DHT22;33252;48.122;11.538;2022-10-31T17:39:18;14.20;99.90
47520;DHT22;33252;48.122;11.538;2022-10-31T17:41:44;14.20;99.90
47520;DHT22;33252;48.122;11.538;2022-10-31T17:44:10;14.20;99.90
47520;DHT22;33252;48.122;11.538;2022-10-31T17:46:36;14.20;99.90
47520;DHT22;33252;48.122;11.538;2022-10-31T17:49:03;14.10;99.90
47520;DHT22;33252;48.122;11.538;2022-10-31T17:51:31;14.10;99.90
47520;DHT22;33252;48.122;11.538;2022-10-31T17:53:57;14.10;99.90
47520;DHT22;33252;48.122;11.538;2022-10-31T17:56:23;14.00;99.90
47520;DHT22;33252;48.122;11.538;2022-10-31T17:58:49;14.00;99.90
47520;DHT22;33252;48.122;11.538;2022-10-31T18:01:16;13.90;99.90
47520;DHT22;33252;48.122;11.538;2022-10-31T18:03:42;14.00;99.90
47520;DHT22;33252;48.122;11.538;2022-10-31T18:06:08;13.80;99.90
47520;DHT22;33252;48.122;11.538;2022-10-31T18:08:36;14.00;99.90
47520;DHT22;33252;48.122;11.538;2022-10-31T18:11:13;14.00;99.90
47520;DHT22;33252;48.122;11.538;2022-10-31T18:13:40;13.90;99.90
47520;DHT22;33252;48.122;11.538;2022-10-31T18:16:10;13.70;99.90
47520;DHT22;33252;48.122;11.538;2022-10-31T18:18:37;13.70;99.90